KSAN/SAN METAR and TAF weather

Enter ICAO airport designator
Station Type Date Time Source
KSAN METAR 2019/04/23 04:51 UTC NOAA

KSAN 230451Z 30005KT 10SM FEW130 FEW250 17/12 A3000 RMK AO2 SLP157 T01670122


Station Type Date Time Source
KSAN Decoded METAR 2019/04/23 04:51 UTC NOAA

SAN DIEGO INTERNATIONAL \LINDBERGH FLD, CA, United States (KSAN) 32-44N 117-11W 12M
Apr 23, 2019 - 12:51 AM EDT / 2019.04.23 0451 UTC
Wind: from the WNW (300 degrees) at 6 MPH (5 KT):0
Visibility: 10 mile(s):0
Sky conditions: mostly clear
Temperature: 62.1 F (16.7 C)
Dew Point: 54.0 F (12.2 C)
Relative Humidity: 74%
Pressure (altimeter): 30 in. Hg (1015 hPa)
ob: KSAN 230451Z 30005KT 10SM FEW130 FEW250 17/12 A3000 RMK AO2 SLP157 T01670122
cycle: 5

Station Type Date Time Source
KSAN TAF 2019/04/23 04:12 UTC NOAA

TAF
AMD KSAN 230411Z 2304/2406 VRB04KT P6SM FEW130
FM231000 VRB04KT P6SM BKN010
FM231800 28008KT P6SM FEW015
FM240200 VRB04KT P6SM SCT010

Example: see airport list